Thomaston, Alabama
Current Conditions -  °F | °C
As of 1:15 PM on Friday 28 Nov 2014 (Local Time) from KDYA Reporting Station
Clear Clear  
Wind Chill: 55°   Ceiling: Unl
Heat Index: 55°   Visibility: 10mi
Dew Point: 19°   Wind: 5mph
Humidity: 25%   Direction: 110°ESE
Pressure: 30.34"   Gusts: NA
Location:  32.27°N, 87.63°W
Report Text: KDYA 281915Z AUTO 11004KT 10SM CLR 13/M07 A3034 RMK AO2 T01251074
Loading
Personal Weather Stations






























Interactive Weather Map New forecast layout! Learn more

10-Day Weather Forecast

Advertisements
Track Severe Weather on mobile